createdAt,value
2019-02-24T00:04:20.014Z,42.99
2019-02-24T00:09:24.031Z,42.46
2019-02-24T00:14:28.076Z,42.57
2019-02-24T00:19:32.101Z,41.94
2019-02-24T00:24:36.109Z,42.23
2019-02-24T00:29:40.133Z,41.00
2019-02-24T00:34:44.175Z,41.84
2019-02-24T00:39:48.193Z,41.01
2019-02-24T00:44:52.209Z,41.69
2019-02-24T00:49:56.231Z,41.85
2019-02-24T00:55:00.356Z,42.96
2019-02-24T01:00:04.783Z,43.71
2019-02-24T01:05:09.006Z,43.66
2019-02-24T01:10:13.076Z,43.70
2019-02-24T01:15:17.116Z,43.97
2019-02-24T01:20:21.131Z,43.81
2019-02-24T01:25:25.155Z,43.94
2019-02-24T01:30:29.167Z,44.23
2019-02-24T01:35:33.192Z,44.70
2019-02-24T01:40:37.288Z,44.74
2019-02-24T01:45:41.318Z,44.76
2019-02-24T01:50:45.332Z,44.92
2019-02-24T01:55:49.344Z,45.34
2019-02-24T02:00:53.356Z,45.52
2019-02-24T02:05:57.375Z,45.92
2019-02-24T02:11:01.418Z,45.35
2019-02-24T02:16:05.427Z,45.09
2019-02-24T02:21:09.542Z,46.73
2019-02-24T02:26:13.562Z,47.40
2019-02-24T02:31:17.582Z,47.31
2019-02-24T02:36:21.609Z,47.22
2019-02-24T02:41:25.619Z,46.87
2019-02-24T02:46:29.631Z,47.00
2019-02-24T02:51:33.666Z,46.96
2019-02-24T02:56:37.677Z,46.59
2019-02-24T03:01:41.700Z,46.80
2019-02-24T03:07:23.018Z,46.94
2019-02-24T03:12:27.041Z,46.94
2019-02-24T03:17:31.046Z,47.05
2019-02-24T03:22:35.069Z,47.01
2019-02-24T03:27:39.110Z,47.41
2019-02-24T03:32:43.174Z,47.98
2019-02-24T03:37:47.186Z,48.28
2019-02-24T03:42:51.207Z,47.71
2019-02-24T03:47:55.228Z,46.44
2019-02-24T03:52:59.268Z,44.99
2019-02-24T03:58:03.312Z,43.25
2019-02-24T04:03:07.298Z,43.08
2019-02-24T04:08:11.325Z,42.72
2019-02-24T04:13:15.349Z,43.01
2019-02-24T04:18:19.386Z,42.98
2019-02-24T04:23:23.418Z,42.98
2019-02-24T04:28:27.438Z,43.16
2019-02-24T04:33:31.490Z,43.36
2019-02-24T04:38:35.497Z,43.69
2019-02-24T04:43:39.528Z,43.61
2019-02-24T04:48:43.539Z,43.30
2019-02-24T04:53:47.562Z,42.84
2019-02-24T04:58:51.564Z,42.85
2019-02-24T05:03:55.602Z,42.67
2019-02-24T05:08:59.622Z,42.27
2019-02-24T05:14:03.640Z,42.84
2019-02-24T05:19:07.698Z,42.95
2019-02-24T05:24:11.816Z,42.89
2019-02-24T05:29:15.835Z,43.32
2019-02-24T05:34:19.852Z,43.70
2019-02-24T05:39:23.884Z,44.00
2019-02-24T05:44:27.896Z,44.43
2019-02-24T05:49:31.918Z,45.15
2019-02-24T05:54:35.951Z,46.12
2019-02-24T05:59:39.959Z,46.66
2019-02-24T06:04:43.952Z,45.89
2019-02-24T06:09:47.970Z,46.21
2019-02-24T06:14:51.986Z,46.50
2019-02-24T06:19:56.009Z,46.85
2019-02-24T06:25:00.025Z,47.47
2019-02-24T06:30:05.312Z,47.87
2019-02-24T06:35:09.843Z,47.79
2019-02-24T06:40:13.867Z,47.92
2019-02-24T06:45:17.893Z,47.98
2019-02-24T06:50:21.900Z,47.91
2019-02-24T06:55:25.910Z,47.54
2019-02-24T07:00:29.928Z,46.89
2019-02-24T07:05:33.961Z,46.67
2019-02-24T07:10:37.965Z,47.06
2019-02-24T07:15:41.987Z,46.53
2019-02-24T07:20:46.049Z,46.20
2019-02-24T07:25:50.064Z,46.30
2019-02-24T07:30:54.083Z,46.54
2019-02-24T07:35:58.108Z,45.85
2019-02-24T07:41:02.121Z,45.35
2019-02-24T07:46:06.174Z,44.85
2019-02-24T07:51:10.225Z,45.08
2019-02-24T07:56:14.267Z,45.41
2019-02-24T08:01:18.278Z,45.20
2019-02-24T08:06:22.311Z,45.41
2019-02-24T08:11:26.350Z,44.99
2019-02-24T08:16:30.372Z,44.94
2019-02-24T08:21:34.379Z,44.51
2019-02-24T08:26:38.401Z,44.10
2019-02-24T08:31:42.471Z,44.36
2019-02-24T08:36:46.584Z,44.92
2019-02-24T08:41:50.594Z,44.59
2019-02-24T08:46:54.613Z,44.17
2019-02-24T08:51:58.635Z,43.71
2019-02-24T08:57:02.669Z,43.03
2019-02-24T09:02:06.729Z,42.50
2019-02-24T09:07:10.745Z,42.75
2019-02-24T09:12:15.011Z,42.49
2019-02-24T09:17:19.055Z,41.97
2019-02-24T09:22:23.120Z,40.89
2019-02-24T09:27:27.185Z,41.30
2019-02-24T09:32:31.183Z,39.98
2019-02-24T09:37:35.216Z,38.37
2019-02-24T09:42:39.242Z,38.75
2019-02-24T09:47:46.801Z,38.44
2019-02-24T09:52:49.004Z,38.68
2019-02-24T09:57:53.046Z,38.26
2019-02-24T10:02:57.703Z,37.47
2019-02-24T10:08:01.761Z,35.57
2019-02-24T10:13:05.781Z,32.24
2019-02-24T10:18:09.850Z,30.24
2019-02-24T10:23:13.879Z,28.08
2019-02-24T10:28:17.950Z,26.85
2019-02-24T10:33:21.916Z,25.85
2019-02-24T10:38:25.942Z,26.58
2019-02-24T10:43:29.972Z,24.53
2019-02-24T10:48:33.998Z,24.01
2019-02-24T10:53:38.044Z,24.08
2019-02-24T10:58:42.073Z,22.02
2019-02-24T11:03:46.129Z,20.28
2019-02-24T11:08:50.155Z,19.25
2019-02-24T11:13:54.184Z,17.91
2019-02-24T11:18:58.241Z,17.01
2019-02-24T11:24:02.262Z,14.66
2019-02-24T11:29:06.285Z,15.67
2019-02-24T11:34:10.311Z,16.84
2019-02-24T11:39:14.341Z,14.32
2019-02-24T11:44:18.365Z,13.53
2019-02-24T11:49:24.060Z,12.39
2019-02-24T11:54:28.203Z,12.83
2019-02-24T11:59:32.212Z,11.59
2019-02-24T12:04:36.246Z,10.53
2019-02-24T12:09:40.278Z,10.29
2019-02-24T12:14:44.304Z,9.79
2019-02-24T12:19:48.355Z,10.16
2019-02-24T12:24:52.405Z,9.10
2019-02-24T12:29:56.454Z,9.10
2019-02-24T12:35:00.493Z,9.49
2019-02-24T12:40:05.011Z,10.39
2019-02-24T12:45:09.075Z,10.59
2019-02-24T12:50:13.148Z,10.93
2019-02-24T12:55:17.478Z,10.20
2019-02-24T13:00:21.599Z,8.92
2019-02-24T13:05:25.654Z,8.83
2019-02-24T13:10:29.704Z,8.47
2019-02-24T13:15:33.731Z,9.10
2019-02-24T13:20:37.777Z,8.99
2019-02-24T13:25:41.814Z,10.07
2019-02-24T13:30:45.850Z,10.70
2019-02-24T13:35:49.926Z,10.40
2019-02-24T13:40:53.952Z,10.87
2019-02-24T13:45:57.968Z,11.05
2019-02-24T13:51:02.032Z,11.89
2019-02-24T13:56:06.046Z,13.31
2019-02-24T14:01:10.081Z,13.91
2019-02-24T14:06:14.109Z,14.41
2019-02-24T14:11:18.216Z,14.82
2019-02-24T14:16:22.259Z,14.81
2019-02-24T14:21:26.284Z,15.44
2019-02-24T14:26:30.297Z,15.30
2019-02-24T14:31:34.308Z,15.03
2019-02-24T14:36:38.338Z,14.63
2019-02-24T14:41:42.382Z,15.23
2019-02-24T14:46:47.352Z,15.67
2019-02-24T14:51:51.399Z,16.12
2019-02-24T14:56:55.466Z,16.42
2019-02-24T15:01:59.499Z,16.56
2019-02-24T15:07:03.531Z,16.70
2019-02-24T15:12:07.561Z,17.03
2019-02-24T15:17:11.580Z,17.02
2019-02-24T15:22:15.642Z,17.03
2019-02-24T15:27:19.729Z,16.42
2019-02-24T15:32:23.778Z,16.17
2019-02-24T15:37:27.806Z,16.75
2019-02-24T15:42:31.836Z,17.39
2019-02-24T15:47:35.889Z,17.28
2019-02-24T15:52:39.937Z,17.53
2019-02-24T15:57:43.958Z,18.14
2019-02-24T16:02:48.023Z,18.69
2019-02-24T16:07:52.054Z,19.40
2019-02-24T16:12:56.093Z,22.35
2019-02-24T16:18:00.113Z,20.60
2019-02-24T16:23:04.174Z,21.13
2019-02-24T16:28:08.255Z,21.30
2019-02-24T16:33:12.309Z,21.92
2019-02-24T16:38:16.349Z,22.04
2019-02-24T16:43:20.369Z,22.84
2019-02-24T16:48:24.380Z,22.04
2019-02-24T16:53:28.423Z,21.67
2019-02-24T16:58:32.446Z,21.36
2019-02-24T17:03:36.489Z,21.75
2019-02-24T17:08:40.526Z,22.10
2019-02-24T17:13:44.757Z,21.95
2019-02-24T17:18:48.779Z,22.70
2019-02-24T17:23:52.802Z,23.04
2019-02-24T17:28:56.831Z,23.12
2019-02-24T17:34:00.919Z,22.88
2019-02-24T17:39:04.978Z,23.28
2019-02-24T17:44:09.004Z,23.06
2019-02-24T17:49:13.029Z,22.54
2019-02-24T17:54:17.067Z,22.32
2019-02-24T17:59:21.105Z,22.71
2019-02-24T18:04:25.592Z,22.57
2019-02-24T18:09:29.697Z,22.78
2019-02-24T18:14:33.741Z,23.20
2019-02-24T18:19:37.798Z,24.12
2019-02-24T18:24:41.959Z,24.56
2019-02-24T18:29:46.047Z,25.38
2019-02-24T18:34:50.137Z,24.69
2019-02-24T18:39:54.227Z,24.38
2019-02-24T18:44:58.798Z,24.13
2019-02-24T18:50:03.207Z,24.69
2019-02-24T18:55:08.096Z,24.83
2019-02-24T19:00:14.045Z,24.90
2019-02-24T19:05:18.681Z,25.97
2019-02-24T19:10:23.457Z,25.72
2019-02-24T19:15:28.313Z,25.70
2019-02-24T19:20:33.420Z,26.23
2019-02-24T19:25:38.807Z,26.47
2019-02-24T19:30:43.577Z,26.32
2019-02-24T19:35:48.772Z,26.50
2019-02-24T19:40:53.465Z,26.58
2019-02-24T19:45:58.309Z,26.27
2019-02-24T19:51:03.186Z,26.67
2019-02-24T19:56:08.152Z,27.07
2019-02-24T20:01:12.690Z,26.40
2019-02-24T20:06:17.380Z,26.76
2019-02-24T20:11:22.020Z,26.47
2019-02-24T20:16:26.623Z,27.20
2019-02-24T20:21:31.538Z,27.16
2019-02-24T20:26:35.760Z,27.35
2019-02-24T20:31:40.364Z,27.92
2019-02-24T20:36:45.152Z,27.93
2019-02-24T20:41:49.481Z,28.56
2019-02-24T20:46:53.818Z,28.14
2019-02-24T20:51:57.947Z,28.36
2019-02-24T20:57:01.992Z,28.26
2019-02-24T21:02:06.104Z,29.08
2019-02-24T21:07:10.303Z,29.17
2019-02-24T21:12:14.348Z,30.01
2019-02-24T21:17:18.382Z,30.26
2019-02-24T21:22:22.426Z,30.84
2019-02-24T21:27:26.473Z,30.85
2019-02-24T21:32:30.512Z,31.31
2019-02-24T21:37:34.565Z,31.03
2019-02-24T21:42:38.607Z,31.19
2019-02-24T21:47:42.624Z,31.70
2019-02-24T21:52:46.657Z,32.02
2019-02-24T21:57:50.693Z,32.05
2019-02-24T22:02:54.717Z,31.77
2019-02-24T22:07:58.730Z,31.59
2019-02-24T22:13:02.753Z,31.65
2019-02-24T22:18:06.818Z,32.15
2019-02-24T22:23:10.878Z,31.94
2019-02-24T22:28:15.121Z,32.21
2019-02-24T22:33:19.362Z,32.45
2019-02-24T22:38:23.570Z,32.88
2019-02-24T22:43:27.814Z,31.97
2019-02-24T22:48:32.052Z,32.06
2019-02-24T22:53:36.308Z,32.00
2019-02-24T22:58:40.530Z,32.13
2019-02-24T23:03:47.062Z,31.57
2019-02-24T23:08:51.283Z,31.17
2019-02-24T23:13:55.516Z,31.35
2019-02-24T23:18:59.754Z,32.02
2019-02-24T23:24:04.024Z,32.88
2019-02-24T23:29:08.227Z,32.14
2019-02-24T23:34:12.456Z,32.61
2019-02-24T23:39:18.141Z,32.85
2019-02-24T23:44:22.373Z,33.35
2019-02-24T23:49:26.619Z,33.28
2019-02-24T23:54:30.853Z,33.14
2019-02-24T23:59:35.080Z,34.27
